Terminal Aerodrome Forecast
Issued by NWS

Home | Current Version | Previous Version | Text Only | Print | Product List | Glossary On
Versions: 1 2 3 4 5 6 7 8 9 10 11 12 13
000
FTUS42 TJSJ 221700
TAFJMZ
TAF
TJMZ 221739Z 2218/2318 28010KT P6SM SCT040
     FM222300 06005KT P6SM FEW035
     FM231530 27010KT P6SM SCT025 BKN040
      AMD NOT SKED TIL 231500=

USA.gov is the U.S. government's official web portal to all federal, state and local government web resources and services.